sensor_id;sensor_type;location;lat;lon;timestamp;P1;durP1;ratioP1;P2;durP2;ratioP2
34212;SDS011;20477;51.390;8.102;2022-11-11T00:00:35;12.80;;;4.35;;
34212;SDS011;20477;51.390;8.102;2022-11-11T00:03:04;16.30;;;4.43;;
34212;SDS011;20477;51.390;8.102;2022-11-11T00:05:31;9.07;;;4.18;;
34212;SDS011;20477;51.390;8.102;2022-11-11T00:07:59;11.13;;;4.40;;
34212;SDS011;20477;51.390;8.102;2022-11-11T00:10:28;17.52;;;4.80;;
34212;SDS011;20477;51.390;8.102;2022-11-11T00:13:00;13.73;;;4.75;;
34212;SDS011;20477;51.390;8.102;2022-11-11T00:15:39;18.17;;;5.00;;
34212;SDS011;20477;51.390;8.102;2022-11-11T00:18:20;11.88;;;4.93;;
34212;SDS011;20477;51.390;8.102;2022-11-11T00:21:26;12.48;;;4.88;;
34212;SDS011;20477;51.390;8.102;2022-11-11T00:31:35;12.95;;;4.85;;
34212;SDS011;20477;51.390;8.102;2022-11-11T00:34:46;21.00;;;6.03;;
34212;SDS011;20477;51.390;8.102;2022-11-11T00:37:46;14.00;;;5.35;;
34212;SDS011;20477;51.390;8.102;2022-11-11T00:40:19;16.52;;;5.35;;
34212;SDS011;20477;51.390;8.102;2022-11-11T00:42:56;13.45;;;4.65;;
34212;SDS011;20477;51.390;8.102;2022-11-11T00:45:34;14.60;;;5.57;;
34212;SDS011;20477;51.390;8.102;2022-11-11T00:48:09;14.43;;;5.03;;
34212;SDS011;20477;51.390;8.102;2022-11-11T00:50:55;13.82;;;5.80;;
34212;SDS011;20477;51.390;8.102;2022-11-11T00:53:28;15.52;;;5.13;;
34212;SDS011;20477;51.390;8.102;2022-11-11T00:56:04;11.68;;;5.30;;
34212;SDS011;20477;51.390;8.102;2022-11-11T00:58:42;17.20;;;5.22;;
34212;SDS011;20477;51.390;8.102;2022-11-11T01:01:26;10.40;;;4.32;;
34212;SDS011;20477;51.390;8.102;2022-11-11T01:03:53;13.70;;;3.88;;
34212;SDS011;20477;51.390;8.102;2022-11-11T01:06:22;14.88;;;5.03;;
34212;SDS011;20477;51.390;8.102;2022-11-11T01:08:49;13.52;;;5.35;;
34212;SDS011;20477;51.390;8.102;2022-11-11T01:11:20;17.73;;;5.40;;
34212;SDS011;20477;51.390;8.102;2022-11-11T01:13:49;12.10;;;4.85;;
34212;SDS011;20477;51.390;8.102;2022-11-11T01:16:28;9.30;;;4.47;;
34212;SDS011;20477;51.390;8.102;2022-11-11T01:18:58;11.80;;;4.18;;
34212;SDS011;20477;51.390;8.102;2022-11-11T01:21:41;10.35;;;4.82;;
34212;SDS011;20477;51.390;8.102;2022-11-11T01:24:32;9.75;;;4.25;;
34212;SDS011;20477;51.390;8.102;2022-11-11T01:27:07;14.18;;;4.95;;
34212;SDS011;20477;51.390;8.102;2022-11-11T01:29:37;14.82;;;5.00;;
34212;SDS011;20477;51.390;8.102;2022-11-11T01:32:05;15.73;;;6.05;;
34212;SDS011;20477;51.390;8.102;2022-11-11T01:34:32;15.57;;;4.35;;
34212;SDS011;20477;51.390;8.102;2022-11-11T01:36:59;11.52;;;4.63;;
34212;SDS011;20477;51.390;8.102;2022-11-11T01:39:26;11.93;;;4.55;;
34212;SDS011;20477;51.390;8.102;2022-11-11T01:41:53;15.05;;;5.45;;
34212;SDS011;20477;51.390;8.102;2022-11-11T01:47:12;11.70;;;5.53;;
34212;SDS011;20477;51.390;8.102;2022-11-11T01:49:56;14.82;;;5.18;;
34212;SDS011;20477;51.390;8.102;2022-11-11T01:52:28;14.52;;;5.07;;
34212;SDS011;20477;51.390;8.102;2022-11-11T01:55:11;9.82;;;4.57;;
34212;SDS011;20477;51.390;8.102;2022-11-11T01:57:45;10.55;;;5.47;;
34212;SDS011;20477;51.390;8.102;2022-11-11T02:00:17;14.65;;;5.85;;
34212;SDS011;20477;51.390;8.102;2022-11-11T02:02:48;13.90;;;4.82;;
34212;SDS011;20477;51.390;8.102;2022-11-11T02:05:24;9.35;;;4.25;;
34212;SDS011;20477;51.390;8.102;2022-11-11T02:08:20;18.05;;;5.03;;
34212;SDS011;20477;51.390;8.102;2022-11-11T02:11:14;8.32;;;4.22;;
34212;SDS011;20477;51.390;8.102;2022-11-11T02:14:07;10.45;;;5.18;;
34212;SDS011;20477;51.390;8.102;2022-11-11T02:16:54;14.20;;;4.53;;
34212;SDS011;20477;51.390;8.102;2022-11-11T02:19:27;11.50;;;5.10;;
34212;SDS011;20477;51.390;8.102;2022-11-11T02:25:50;13.00;;;4.55;;
34212;SDS011;20477;51.390;8.102;2022-11-11T02:28:18;14.52;;;4.15;;
34212;SDS011;20477;51.390;8.102;2022-11-11T02:30:46;12.25;;;5.28;;
34212;SDS011;20477;51.390;8.102;2022-11-11T02:33:13;13.27;;;4.97;;
34212;SDS011;20477;51.390;8.102;2022-11-11T02:35:43;12.23;;;4.82;;
34212;SDS011;20477;51.390;8.102;2022-11-11T02:38:12;11.98;;;5.38;;
34212;SDS011;20477;51.390;8.102;2022-11-11T02:40:41;12.98;;;4.07;;
34212;SDS011;20477;51.390;8.102;2022-11-11T02:43:29;9.88;;;4.30;;
34212;SDS011;20477;51.390;8.102;2022-11-11T02:45:57;7.97;;;4.30;;
34212;SDS011;20477;51.390;8.102;2022-11-11T02:48:25;14.93;;;5.10;;
34212;SDS011;20477;51.390;8.102;2022-11-11T02:50:53;14.35;;;5.70;;
34212;SDS011;20477;51.390;8.102;2022-11-11T02:53:22;15.10;;;4.90;;
34212;SDS011;20477;51.390;8.102;2022-11-11T02:55:50;15.05;;;4.95;;
34212;SDS011;20477;51.390;8.102;2022-11-11T02:58:17;13.65;;;4.88;;
34212;SDS011;20477;51.390;8.102;2022-11-11T03:00:46;15.65;;;5.55;;
34212;SDS011;20477;51.390;8.102;2022-11-11T03:03:13;10.57;;;5.15;;
34212;SDS011;20477;51.390;8.102;2022-11-11T03:05:41;13.52;;;5.13;;
34212;SDS011;20477;51.390;8.102;2022-11-11T03:08:08;14.93;;;4.88;;
34212;SDS011;20477;51.390;8.102;2022-11-11T03:10:35;10.25;;;5.22;;
34212;SDS011;20477;51.390;8.102;2022-11-11T03:13:03;21.92;;;6.25;;
34212;SDS011;20477;51.390;8.102;2022-11-11T03:15:30;12.25;;;6.00;;
34212;SDS011;20477;51.390;8.102;2022-11-11T03:17:57;8.88;;;4.45;;
34212;SDS011;20477;51.390;8.102;2022-11-11T03:20:26;11.77;;;5.82;;
34212;SDS011;20477;51.390;8.102;2022-11-11T03:23:13;13.75;;;5.28;;
34212;SDS011;20477;51.390;8.102;2022-11-11T03:25:50;15.10;;;5.30;;
34212;SDS011;20477;51.390;8.102;2022-11-11T03:28:23;13.30;;;5.05;;
34212;SDS011;20477;51.390;8.102;2022-11-11T03:30:51;11.90;;;4.72;;
34212;SDS011;20477;51.390;8.102;2022-11-11T03:33:19;14.82;;;5.05;;
34212;SDS011;20477;51.390;8.102;2022-11-11T03:35:47;14.60;;;5.57;;
34212;SDS011;20477;51.390;8.102;2022-11-11T03:38:14;14.88;;;5.50;;
34212;SDS011;20477;51.390;8.102;2022-11-11T03:40:44;8.27;;;4.57;;
34212;SDS011;20477;51.390;8.102;2022-11-11T03:43:16;11.95;;;5.07;;
34212;SDS011;20477;51.390;8.102;2022-11-11T03:45:44;18.15;;;5.20;;
34212;SDS011;20477;51.390;8.102;2022-11-11T03:48:11;5.05;;;3.28;;
34212;SDS011;20477;51.390;8.102;2022-11-11T03:50:38;11.88;;;4.55;;
34212;SDS011;20477;51.390;8.102;2022-11-11T03:53:05;13.07;;;4.15;;
34212;SDS011;20477;51.390;8.102;2022-11-11T03:55:33;10.65;;;4.75;;
34212;SDS011;20477;51.390;8.102;2022-11-11T03:58:00;13.82;;;4.30;;
34212;SDS011;20477;51.390;8.102;2022-11-11T04:00:27;11.73;;;5.10;;
34212;SDS011;20477;51.390;8.102;2022-11-11T04:03:14;16.40;;;4.68;;
34212;SDS011;20477;51.390;8.102;2022-11-11T04:06:05;14.68;;;4.50;;
34212;SDS011;20477;51.390;8.102;2022-11-11T04:08:53;26.52;;;10.75;;
34212;SDS011;20477;51.390;8.102;2022-11-11T04:11:39;14.18;;;4.90;;
34212;SDS011;20477;51.390;8.102;2022-11-11T04:14:11;12.70;;;4.90;;
34212;SDS011;20477;51.390;8.102;2022-11-11T04:16:59;9.73;;;5.30;;
34212;SDS011;20477;51.390;8.102;2022-11-11T04:19:31;14.95;;;5.53;;
34212;SDS011;20477;51.390;8.102;2022-11-11T04:22:20;15.00;;;5.50;;
34212;SDS011;20477;51.390;8.102;2022-11-11T04:24:47;11.55;;;4.88;;
34212;SDS011;20477;51.390;8.102;2022-11-11T04:27:33;15.45;;;5.38;;
34212;SDS011;20477;51.390;8.102;2022-11-11T04:30:00;13.23;;;5.50;;
34212;SDS011;20477;51.390;8.102;2022-11-11T04:32:26;14.52;;;5.45;;
34212;SDS011;20477;51.390;8.102;2022-11-11T04:35:06;11.85;;;5.70;;
34212;SDS011;20477;51.390;8.102;2022-11-11T04:37:36;10.63;;;5.22;;
34212;SDS011;20477;51.390;8.102;2022-11-11T04:40:11;12.50;;;5.20;;
34212;SDS011;20477;51.390;8.102;2022-11-11T04:43:17;13.23;;;5.05;;
34212;SDS011;20477;51.390;8.102;2022-11-11T04:45:44;10.20;;;4.70;;
34212;SDS011;20477;51.390;8.102;2022-11-11T04:48:11;16.45;;;6.18;;
34212;SDS011;20477;51.390;8.102;2022-11-11T04:50:40;15.48;;;5.80;;
34212;SDS011;20477;51.390;8.102;2022-11-11T04:53:12;12.15;;;4.78;;
34212;SDS011;20477;51.390;8.102;2022-11-11T04:55:49;13.85;;;5.82;;
34212;SDS011;20477;51.390;8.102;2022-11-11T04:58:40;12.18;;;5.60;;
34212;SDS011;20477;51.390;8.102;2022-11-11T05:01:07;13.27;;;5.68;;
34212;SDS011;20477;51.390;8.102;2022-11-11T05:03:35;15.68;;;5.38;;
34212;SDS011;20477;51.390;8.102;2022-11-11T05:06:02;15.48;;;5.95;;
34212;SDS011;20477;51.390;8.102;2022-11-11T05:08:48;8.35;;;4.60;;
34212;SDS011;20477;51.390;8.102;2022-11-11T05:11:23;15.35;;;5.00;;
34212;SDS011;20477;51.390;8.102;2022-11-11T05:14:00;7.57;;;3.78;;
34212;SDS011;20477;51.390;8.102;2022-11-11T05:16:48;10.13;;;4.90;;
34212;SDS011;20477;51.390;8.102;2022-11-11T05:19:35;7.15;;;4.03;;
34212;SDS011;20477;51.390;8.102;2022-11-11T05:22:22;10.10;;;4.43;;
34212;SDS011;20477;51.390;8.102;2022-11-11T05:24:53;7.85;;;3.00;;
34212;SDS011;20477;51.390;8.102;2022-11-11T05:27:39;8.85;;;4.20;;
34212;SDS011;20477;51.390;8.102;2022-11-11T05:30:07;8.63;;;3.88;;
34212;SDS011;20477;51.390;8.102;2022-11-11T05:32:36;9.77;;;3.60;;
34212;SDS011;20477;51.390;8.102;2022-11-11T05:35:04;7.68;;;4.10;;
34212;SDS011;20477;51.390;8.102;2022-11-11T05:37:32;7.03;;;3.88;;
34212;SDS011;20477;51.390;8.102;2022-11-11T05:39:59;16.65;;;4.43;;
34212;SDS011;20477;51.390;8.102;2022-11-11T05:42:26;12.00;;;4.57;;
34212;SDS011;20477;51.390;8.102;2022-11-11T05:44:53;7.90;;;4.38;;
34212;SDS011;20477;51.390;8.102;2022-11-11T05:47:20;12.32;;;4.72;;
34212;SDS011;20477;51.390;8.102;2022-11-11T05:49:47;15.23;;;4.30;;
34212;SDS011;20477;51.390;8.102;2022-11-11T05:52:14;11.02;;;4.50;;
34212;SDS011;20477;51.390;8.102;2022-11-11T05:54:42;13.52;;;4.63;;
34212;SDS011;20477;51.390;8.102;2022-11-11T05:57:10;7.43;;;4.05;;
34212;SDS011;20477;51.390;8.102;2022-11-11T05:59:37;14.00;;;4.03;;
34212;SDS011;20477;51.390;8.102;2022-11-11T06:02:04;9.68;;;4.35;;
34212;SDS011;20477;51.390;8.102;2022-11-11T06:04:31;8.65;;;4.13;;
34212;SDS011;20477;51.390;8.102;2022-11-11T06:07:00;10.32;;;4.93;;
34212;SDS011;20477;51.390;8.102;2022-11-11T06:09:27;8.75;;;4.75;;
34212;SDS011;20477;51.390;8.102;2022-11-11T06:11:54;7.68;;;4.43;;
34212;SDS011;20477;51.390;8.102;2022-11-11T06:14:21;9.73;;;4.47;;
34212;SDS011;20477;51.390;8.102;2022-11-11T06:16:48;12.32;;;4.45;;
34212;SDS011;20477;51.390;8.102;2022-11-11T06:19:15;6.55;;;4.25;;
34212;SDS011;20477;51.390;8.102;2022-11-11T06:21:42;8.10;;;4.00;;
34212;SDS011;20477;51.390;8.102;2022-11-11T06:24:26;14.77;;;4.20;;
34212;SDS011;20477;51.390;8.102;2022-11-11T06:26:53;8.40;;;3.10;;
34212;SDS011;20477;51.390;8.102;2022-11-11T06:29:21;10.73;;;3.45;;
34212;SDS011;20477;51.390;8.102;2022-11-11T06:31:48;8.73;;;4.13;;
34212;SDS011;20477;51.390;8.102;2022-11-11T06:34:15;7.97;;;3.28;;
34212;SDS011;20477;51.390;8.102;2022-11-11T06:36:42;12.75;;;3.15;;
34212;SDS011;20477;51.390;8.102;2022-11-11T06:39:11;7.65;;;3.13;;
34212;SDS011;20477;51.390;8.102;2022-11-11T06:41:38;13.63;;;5.20;;
34212;SDS011;20477;51.390;8.102;2022-11-11T06:44:05;26.48;;;10.90;;
34212;SDS011;20477;51.390;8.102;2022-11-11T06:46:32;19.83;;;8.65;;
34212;SDS011;20477;51.390;8.102;2022-11-11T06:49:01;8.43;;;5.18;;
34212;SDS011;20477;51.390;8.102;2022-11-11T06:51:28;12.68;;;4.75;;
34212;SDS011;20477;51.390;8.102;2022-11-11T06:53:55;9.20;;;6.10;;
34212;SDS011;20477;51.390;8.102;2022-11-11T06:56:22;17.58;;;8.45;;
34212;SDS011;20477;51.390;8.102;2022-11-11T06:58:49;8.27;;;5.07;;
34212;SDS011;20477;51.390;8.102;2022-11-11T07:01:19;13.60;;;7.85;;
34212;SDS011;20477;51.390;8.102;2022-11-11T07:03:47;7.38;;;4.35;;
34212;SDS011;20477;51.390;8.102;2022-11-11T07:06:14;14.73;;;6.32;;
34212;SDS011;20477;51.390;8.102;2022-11-11T07:08:41;9.23;;;5.63;;
34212;SDS011;20477;51.390;8.102;2022-11-11T07:11:09;11.93;;;4.85;;
34212;SDS011;20477;51.390;8.102;2022-11-11T07:13:44;9.07;;;4.70;;
34212;SDS011;20477;51.390;8.102;2022-11-11T07:16:11;12.02;;;5.00;;
34212;SDS011;20477;51.390;8.102;2022-11-11T07:18:38;7.93;;;4.57;;
34212;SDS011;20477;51.390;8.102;2022-11-11T07:21:05;10.65;;;4.97;;
34212;SDS011;20477;51.390;8.102;2022-11-11T07:23:32;12.70;;;5.38;;
34212;SDS011;20477;51.390;8.102;2022-11-11T07:25:58;8.93;;;5.10;;
34212;SDS011;20477;51.390;8.102;2022-11-11T07:28:25;8.73;;;4.65;;
34212;SDS011;20477;51.390;8.102;2022-11-11T07:30:53;9.20;;;3.80;;
34212;SDS011;20477;51.390;8.102;2022-11-11T07:33:20;9.90;;;4.40;;
34212;SDS011;20477;51.390;8.102;2022-11-11T07:35:50;11.73;;;5.47;;
34212;SDS011;20477;51.390;8.102;2022-11-11T07:38:18;10.20;;;5.07;;
34212;SDS011;20477;51.390;8.102;2022-11-11T07:40:45;8.38;;;4.07;;
34212;SDS011;20477;51.390;8.102;2022-11-11T07:43:12;8.23;;;4.15;;
34212;SDS011;20477;51.390;8.102;2022-11-11T07:45:39;7.78;;;4.10;;
34212;SDS011;20477;51.390;8.102;2022-11-11T07:48:06;6.43;;;3.72;;
34212;SDS011;20477;51.390;8.102;2022-11-11T07:50:33;7.65;;;3.72;;
34212;SDS011;20477;51.390;8.102;2022-11-11T07:53:00;10.20;;;4.07;;
34212;SDS011;20477;51.390;8.102;2022-11-11T07:55:26;10.15;;;3.50;;
34212;SDS011;20477;51.390;8.102;2022-11-11T07:57:53;9.30;;;3.30;;
34212;SDS011;20477;51.390;8.102;2022-11-11T08:00:21;7.57;;;2.50;;
34212;SDS011;20477;51.390;8.102;2022-11-11T08:02:48;9.02;;;3.97;;
34212;SDS011;20477;51.390;8.102;2022-11-11T08:05:24;5.60;;;3.03;;
34212;SDS011;20477;51.390;8.102;2022-11-11T08:07:51;10.07;;;3.58;;
34212;SDS011;20477;51.390;8.102;2022-11-11T08:10:18;7.72;;;3.55;;
34212;SDS011;20477;51.390;8.102;2022-11-11T08:12:45;9.85;;;3.88;;
34212;SDS011;20477;51.390;8.102;2022-11-11T08:15:35;7.32;;;3.60;;
34212;SDS011;20477;51.390;8.102;2022-11-11T08:18:02;8.38;;;3.67;;
34212;SDS011;20477;51.390;8.102;2022-11-11T08:20:29;6.30;;;3.15;;
34212;SDS011;20477;51.390;8.102;2022-11-11T08:22:56;6.32;;;3.45;;
34212;SDS011;20477;51.390;8.102;2022-11-11T08:25:44;7.20;;;3.42;;
34212;SDS011;20477;51.390;8.102;2022-11-11T08:28:12;6.97;;;3.30;;
34212;SDS011;20477;51.390;8.102;2022-11-11T08:30:39;7.68;;;4.03;;
34212;SDS011;20477;51.390;8.102;2022-11-11T08:33:06;15.00;;;3.45;;
34212;SDS011;20477;51.390;8.102;2022-11-11T08:35:57;9.10;;;2.97;;
34212;SDS011;20477;51.390;8.102;2022-11-11T08:38:24;3.95;;;2.65;;
34212;SDS011;20477;51.390;8.102;2022-11-11T08:40:51;11.00;;;3.78;;
34212;SDS011;20477;51.390;8.102;2022-11-11T08:43:19;5.75;;;3.28;;
34212;SDS011;20477;51.390;8.102;2022-11-11T08:45:46;9.23;;;3.55;;
34212;SDS011;20477;51.390;8.102;2022-11-11T08:48:13;5.85;;;2.88;;
34212;SDS011;20477;51.390;8.102;2022-11-11T08:50:40;8.60;;;3.15;;
34212;SDS011;20477;51.390;8.102;2022-11-11T08:53:08;10.52;;;3.17;;
34212;SDS011;20477;51.390;8.102;2022-11-11T08:55:35;7.15;;;2.72;;
34212;SDS011;20477;51.390;8.102;2022-11-11T08:58:05;5.45;;;3.00;;
34212;SDS011;20477;51.390;8.102;2022-11-11T09:00:32;10.35;;;3.50;;
34212;SDS011;20477;51.390;8.102;2022-11-11T09:03:03;8.75;;;3.10;;
34212;SDS011;20477;51.390;8.102;2022-11-11T09:05:31;7.20;;;3.00;;
34212;SDS011;20477;51.390;8.102;2022-11-11T09:08:02;6.40;;;2.55;;
34212;SDS011;20477;51.390;8.102;2022-11-11T09:10:35;14.73;;;3.65;;
34212;SDS011;20477;51.390;8.102;2022-11-11T09:13:02;6.55;;;2.35;;
34212;SDS011;20477;51.390;8.102;2022-11-11T09:15:30;5.68;;;2.30;;
34212;SDS011;20477;51.390;8.102;2022-11-11T09:17:57;4.03;;;2.47;;
34212;SDS011;20477;51.390;8.102;2022-11-11T09:20:24;7.13;;;2.60;;
34212;SDS011;20477;51.390;8.102;2022-11-11T09:22:51;3.92;;;2.20;;
34212;SDS011;20477;51.390;8.102;2022-11-11T09:25:19;6.93;;;2.33;;
34212;SDS011;20477;51.390;8.102;2022-11-11T09:27:53;4.60;;;2.20;;
34212;SDS011;20477;51.390;8.102;2022-11-11T09:30:21;5.75;;;1.95;;
34212;SDS011;20477;51.390;8.102;2022-11-11T09:32:48;7.85;;;1.77;;
34212;SDS011;20477;51.390;8.102;2022-11-11T09:35:16;7.82;;;2.08;;
34212;SDS011;20477;51.390;8.102;2022-11-11T09:37:53;3.90;;;2.05;;
34212;SDS011;20477;51.390;8.102;2022-11-11T09:40:21;6.07;;;2.20;;
34212;SDS011;20477;51.390;8.102;2022-11-11T09:43:04;4.75;;;2.03;;
34212;SDS011;20477;51.390;8.102;2022-11-11T09:45:44;5.18;;;2.33;;
34212;SDS011;20477;51.390;8.102;2022-11-11T09:48:46;8.35;;;1.85;;
34212;SDS011;20477;51.390;8.102;2022-11-11T09:51:17;4.68;;;1.90;;
34212;SDS011;20477;51.390;8.102;2022-11-11T09:56:18;4.03;;;1.42;;
34212;SDS011;20477;51.390;8.102;2022-11-11T10:01:54;3.95;;;1.63;;
34212;SDS011;20477;51.390;8.102;2022-11-11T10:04:24;2.53;;;1.40;;
34212;SDS011;20477;51.390;8.102;2022-11-11T10:07:43;2.35;;;1.30;;
34212;SDS011;20477;51.390;8.102;2022-11-11T10:13:11;2.60;;;1.08;;
34212;SDS011;20477;51.390;8.102;2022-11-11T10:15:56;3.63;;;1.65;;
34212;SDS011;20477;51.390;8.102;2022-11-11T10:21:07;3.72;;;1.40;;
34212;SDS011;20477;51.390;8.102;2022-11-11T10:35:03;10.68;;;1.77;;
34212;SDS011;20477;51.390;8.102;2022-11-11T10:41:04;3.85;;;1.05;;
34212;SDS011;20477;51.390;8.102;2022-11-11T10:43:46;2.92;;;1.15;;
34212;SDS011;20477;51.390;8.102;2022-11-11T10:46:29;3.85;;;1.20;;
34212;SDS011;20477;51.390;8.102;2022-11-11T10:49:24;3.67;;;1.00;;
34212;SDS011;20477;51.390;8.102;2022-11-11T10:52:06;4.82;;;1.13;;
34212;SDS011;20477;51.390;8.102;2022-11-11T10:59:43;2.53;;;0.98;;
34212;SDS011;20477;51.390;8.102;2022-11-11T11:04:52;1.58;;;0.80;;
34212;SDS011;20477;51.390;8.102;2022-11-11T11:07:25;3.67;;;0.98;;
34212;SDS011;20477;51.390;8.102;2022-11-11T11:10:06;2.50;;;0.93;;
34212;SDS011;20477;51.390;8.102;2022-11-11T11:16:15;1.08;;;0.60;;
34212;SDS011;20477;51.390;8.102;2022-11-11T11:21:58;1.98;;;0.60;;
34212;SDS011;20477;51.390;8.102;2022-11-11T11:24:27;1.67;;;0.80;;
34212;SDS011;20477;51.390;8.102;2022-11-11T11:26:55;3.10;;;0.85;;
34212;SDS011;20477;51.390;8.102;2022-11-11T11:29:42;0.88;;;0.70;;
34212;SDS011;20477;51.390;8.102;2022-11-11T11:34:53;1.55;;;1.00;;
34212;SDS011;20477;51.390;8.102;2022-11-11T11:37:24;1.05;;;0.68;;
34212;SDS011;20477;51.390;8.102;2022-11-11T11:40:29;2.95;;;0.90;;
34212;SDS011;20477;51.390;8.102;2022-11-11T11:46:02;0.73;;;0.60;;
34212;SDS011;20477;51.390;8.102;2022-11-11T11:51:42;3.28;;;1.00;;
34212;SDS011;20477;51.390;8.102;2022-11-11T11:59:57;2.75;;;0.90;;
34212;SDS011;20477;51.390;8.102;2022-11-11T12:08:05;3.10;;;0.93;;
34212;SDS011;20477;51.390;8.102;2022-11-11T12:16:38;1.73;;;0.77;;
34212;SDS011;20477;51.390;8.102;2022-11-11T12:30:47;3.35;;;0.80;;
34212;SDS011;20477;51.390;8.102;2022-11-11T12:38:48;1.52;;;0.60;;
34212;SDS011;20477;51.390;8.102;2022-11-11T12:43:55;4.63;;;0.65;;
34212;SDS011;20477;51.390;8.102;2022-11-11T12:49:45;1.05;;;0.70;;
34212;SDS011;20477;51.390;8.102;2022-11-11T13:00:19;4.97;;;1.00;;
34212;SDS011;20477;51.390;8.102;2022-11-11T13:03:00;3.05;;;0.85;;
34212;SDS011;20477;51.390;8.102;2022-11-11T13:08:44;3.13;;;0.63;;
34212;SDS011;20477;51.390;8.102;2022-11-11T13:17:32;2.67;;;0.90;;
34212;SDS011;20477;51.390;8.102;2022-11-11T13:20:02;1.75;;;0.70;;
34212;SDS011;20477;51.390;8.102;2022-11-11T13:22:49;0.88;;;0.60;;
34212;SDS011;20477;51.390;8.102;2022-11-11T13:25:23;1.83;;;0.75;;
34212;SDS011;20477;51.390;8.102;2022-11-11T13:27:52;1.83;;;1.20;;
34212;SDS011;20477;51.390;8.102;2022-11-11T13:30:39;3.10;;;0.73;;
34212;SDS011;20477;51.390;8.102;2022-11-11T13:33:19;14.48;;;7.43;;
34212;SDS011;20477;51.390;8.102;2022-11-11T13:35:53;2.30;;;1.10;;
34212;SDS011;20477;51.390;8.102;2022-11-11T13:38:25;2.75;;;0.75;;
34212;SDS011;20477;51.390;8.102;2022-11-11T13:40:56;2.42;;;0.60;;
34212;SDS011;20477;51.390;8.102;2022-11-11T13:46:00;4.28;;;1.05;;
34212;SDS011;20477;51.390;8.102;2022-11-11T13:48:31;4.20;;;0.95;;
34212;SDS011;20477;51.390;8.102;2022-11-11T13:51:11;2.03;;;0.53;;
34212;SDS011;20477;51.390;8.102;2022-11-11T13:53:39;2.53;;;0.80;;
34212;SDS011;20477;51.390;8.102;2022-11-11T13:56:07;3.63;;;0.70;;
34212;SDS011;20477;51.390;8.102;2022-11-11T13:58:35;1.67;;;0.70;;
34212;SDS011;20477;51.390;8.102;2022-11-11T14:01:05;1.98;;;0.93;;
34212;SDS011;20477;51.390;8.102;2022-11-11T14:03:35;4.18;;;0.77;;
34212;SDS011;20477;51.390;8.102;2022-11-11T14:08:54;2.00;;;0.65;;
34212;SDS011;20477;51.390;8.102;2022-11-11T14:13:58;1.95;;;0.88;;
34212;SDS011;20477;51.390;8.102;2022-11-11T14:17:00;5.50;;;0.88;;
34212;SDS011;20477;51.390;8.102;2022-11-11T14:19:37;1.67;;;1.05;;
34212;SDS011;20477;51.390;8.102;2022-11-11T14:24:54;6.70;;;1.00;;
34212;SDS011;20477;51.390;8.102;2022-11-11T14:27:26;3.40;;;1.40;;
34212;SDS011;20477;51.390;8.102;2022-11-11T14:29:54;4.25;;;1.50;;
34212;SDS011;20477;51.390;8.102;2022-11-11T14:32:36;3.92;;;2.00;;
34212;SDS011;20477;51.390;8.102;2022-11-11T14:38:18;5.43;;;1.60;;
34212;SDS011;20477;51.390;8.102;2022-11-11T14:40:55;2.75;;;1.23;;
34212;SDS011;20477;51.390;8.102;2022-11-11T14:46:06;6.07;;;2.60;;
34212;SDS011;20477;51.390;8.102;2022-11-11T14:54:21;6.40;;;3.53;;
34212;SDS011;20477;51.390;8.102;2022-11-11T14:57:00;25.85;;;10.70;;
34212;SDS011;20477;51.390;8.102;2022-11-11T14:59:30;35.38;;;13.27;;
34212;SDS011;20477;51.390;8.102;2022-11-11T15:02:01;19.58;;;8.02;;
34212;SDS011;20477;51.390;8.102;2022-11-11T15:04:36;13.57;;;5.63;;
34212;SDS011;20477;51.390;8.102;2022-11-11T15:07:04;8.68;;;3.42;;
34212;SDS011;20477;51.390;8.102;2022-11-11T15:12:09;6.47;;;1.55;;
34212;SDS011;20477;51.390;8.102;2022-11-11T15:23:24;4.47;;;1.40;;
34212;SDS011;20477;51.390;8.102;2022-11-11T15:26:20;3.17;;;1.17;;
34212;SDS011;20477;51.390;8.102;2022-11-11T15:32:27;6.10;;;1.83;;
34212;SDS011;20477;51.390;8.102;2022-11-11T15:34:44;4.30;;;1.80;;
34212;SDS011;20477;51.390;8.102;2022-11-11T15:37:17;4.82;;;1.50;;
34212;SDS011;20477;51.390;8.102;2022-11-11T15:39:47;3.75;;;1.75;;
34212;SDS011;20477;51.390;8.102;2022-11-11T15:42:35;7.03;;;2.05;;
34212;SDS011;20477;51.390;8.102;2022-11-11T15:45:13;3.10;;;1.40;;
34212;SDS011;20477;51.390;8.102;2022-11-11T15:47:46;7.30;;;1.30;;
34212;SDS011;20477;51.390;8.102;2022-11-11T15:52:54;5.25;;;1.45;;
34212;SDS011;20477;51.390;8.102;2022-11-11T15:55:28;2.75;;;1.67;;
34212;SDS011;20477;51.390;8.102;2022-11-11T16:00:36;10.68;;;3.78;;
34212;SDS011;20477;51.390;8.102;2022-11-11T16:03:03;4.70;;;2.95;;
34212;SDS011;20477;51.390;8.102;2022-11-11T16:05:31;3.97;;;2.22;;
34212;SDS011;20477;51.390;8.102;2022-11-11T16:08:02;8.20;;;3.25;;
34212;SDS011;20477;51.390;8.102;2022-11-11T16:10:34;4.35;;;1.70;;
34212;SDS011;20477;51.390;8.102;2022-11-11T16:13:15;4.55;;;1.63;;
34212;SDS011;20477;51.390;8.102;2022-11-11T16:16:23;5.40;;;1.20;;
34212;SDS011;20477;51.390;8.102;2022-11-11T16:18:54;1.60;;;1.17;;
34212;SDS011;20477;51.390;8.102;2022-11-11T16:21:29;3.45;;;1.20;;
34212;SDS011;20477;51.390;8.102;2022-11-11T16:23:59;3.38;;;1.50;;
34212;SDS011;20477;51.390;8.102;2022-11-11T16:26:27;7.40;;;2.75;;
34212;SDS011;20477;51.390;8.102;2022-11-11T16:28:59;8.25;;;2.95;;
34212;SDS011;20477;51.390;8.102;2022-11-11T16:31:42;8.93;;;6.15;;
34212;SDS011;20477;51.390;8.102;2022-11-11T16:37:03;4.90;;;2.45;;
34212;SDS011;20477;51.390;8.102;2022-11-11T16:39:36;5.60;;;3.15;;
34212;SDS011;20477;51.390;8.102;2022-11-11T16:45:00;5.93;;;2.53;;
34212;SDS011;20477;51.390;8.102;2022-11-11T16:50:09;6.70;;;4.57;;
34212;SDS011;20477;51.390;8.102;2022-11-11T16:52:58;4.97;;;3.25;;
34212;SDS011;20477;51.390;8.102;2022-11-11T16:55:38;6.22;;;3.00;;
34212;SDS011;20477;51.390;8.102;2022-11-11T16:58:11;4.35;;;2.55;;
34212;SDS011;20477;51.390;8.102;2022-11-11T17:00:43;6.13;;;2.67;;
34212;SDS011;20477;51.390;8.102;2022-11-11T17:03:17;4.93;;;2.47;;
34212;SDS011;20477;51.390;8.102;2022-11-11T17:05:49;5.88;;;1.80;;
34212;SDS011;20477;51.390;8.102;2022-11-11T17:11:01;16.80;;;9.55;;
34212;SDS011;20477;51.390;8.102;2022-11-11T17:13:33;11.40;;;6.38;;
34212;SDS011;20477;51.390;8.102;2022-11-11T17:16:07;7.18;;;3.95;;
34212;SDS011;20477;51.390;8.102;2022-11-11T17:18:41;6.05;;;2.90;;
34212;SDS011;20477;51.390;8.102;2022-11-11T17:21:09;6.63;;;2.60;;
34212;SDS011;20477;51.390;8.102;2022-11-11T17:23:37;6.80;;;2.47;;
34212;SDS011;20477;51.390;8.102;2022-11-11T17:26:06;4.88;;;2.42;;
34212;SDS011;20477;51.390;8.102;2022-11-11T17:28:34;11.88;;;3.80;;
34212;SDS011;20477;51.390;8.102;2022-11-11T17:31:05;7.00;;;4.20;;
34212;SDS011;20477;51.390;8.102;2022-11-11T17:33:33;16.27;;;6.35;;
34212;SDS011;20477;51.390;8.102;2022-11-11T17:36:00;6.50;;;4.63;;
34212;SDS011;20477;51.390;8.102;2022-11-11T17:38:27;6.97;;;4.63;;
34212;SDS011;20477;51.390;8.102;2022-11-11T17:40:54;10.48;;;5.00;;
34212;SDS011;20477;51.390;8.102;2022-11-11T17:43:22;16.90;;;8.05;;
34212;SDS011;20477;51.390;8.102;2022-11-11T17:45:50;7.65;;;5.28;;
34212;SDS011;20477;51.390;8.102;2022-11-11T17:48:18;8.07;;;5.13;;
34212;SDS011;20477;51.390;8.102;2022-11-11T17:50:45;11.38;;;6.90;;
34212;SDS011;20477;51.390;8.102;2022-11-11T17:53:12;11.88;;;5.63;;
34212;SDS011;20477;51.390;8.102;2022-11-11T17:55:46;11.13;;;6.63;;
34212;SDS011;20477;51.390;8.102;2022-11-11T17:58:13;15.05;;;7.65;;
34212;SDS011;20477;51.390;8.102;2022-11-11T18:00:40;15.73;;;7.95;;
34212;SDS011;20477;51.390;8.102;2022-11-11T18:03:07;10.98;;;5.85;;
34212;SDS011;20477;51.390;8.102;2022-11-11T18:05:34;10.50;;;5.57;;
34212;SDS011;20477;51.390;8.102;2022-11-11T18:08:01;9.70;;;4.45;;